sensor_id;sensor_type;location;lat;lon;timestamp;P1;durP1;ratioP1;P2;durP2;ratioP2
21138;SDS011;10727;43.600;1.444;2023-05-01T00:01:43;7.50;;;4.97;;
21138;SDS011;10727;43.600;1.444;2023-05-01T00:04:48;6.03;;;4.90;;
21138;SDS011;10727;43.600;1.444;2023-05-01T00:07:54;7.57;;;4.65;;
21138;SDS011;10727;43.600;1.444;2023-05-01T00:11:01;6.82;;;4.70;;
21138;SDS011;10727;43.600;1.444;2023-05-01T00:14:06;7.25;;;4.97;;
21138;SDS011;10727;43.600;1.444;2023-05-01T00:17:13;8.82;;;5.80;;
21138;SDS011;10727;43.600;1.444;2023-05-01T00:20:18;9.48;;;5.18;;
21138;SDS011;10727;43.600;1.444;2023-05-01T00:23:25;8.77;;;5.40;;
21138;SDS011;10727;43.600;1.444;2023-05-01T00:26:30;10.60;;;5.55;;
21138;SDS011;10727;43.600;1.444;2023-05-01T00:29:35;6.53;;;5.30;;
21138;SDS011;10727;43.600;1.444;2023-05-01T00:32:42;7.53;;;5.45;;
21138;SDS011;10727;43.600;1.444;2023-05-01T00:35:46;7.13;;;5.10;;
21138;SDS011;10727;43.600;1.444;2023-05-01T00:38:53;8.25;;;5.85;;
21138;SDS011;10727;43.600;1.444;2023-05-01T00:41:58;11.15;;;5.45;;
21138;SDS011;10727;43.600;1.444;2023-05-01T00:45:04;8.05;;;5.45;;
21138;SDS011;10727;43.600;1.444;2023-05-01T00:48:11;6.40;;;5.10;;
21138;SDS011;10727;43.600;1.444;2023-05-01T00:51:16;6.22;;;5.10;;
21138;SDS011;10727;43.600;1.444;2023-05-01T00:54:22;9.52;;;5.70;;
21138;SDS011;10727;43.600;1.444;2023-05-01T00:57:29;6.93;;;5.72;;
21138;SDS011;10727;43.600;1.444;2023-05-01T01:00:35;11.15;;;5.60;;
21138;SDS011;10727;43.600;1.444;2023-05-01T01:03:42;8.82;;;5.35;;
21138;SDS011;10727;43.600;1.444;2023-05-01T01:06:48;8.48;;;5.72;;
21138;SDS011;10727;43.600;1.444;2023-05-01T01:09:58;8.27;;;5.55;;
21138;SDS011;10727;43.600;1.444;2023-05-01T01:13:07;10.40;;;4.95;;
21138;SDS011;10727;43.600;1.444;2023-05-01T01:16:18;9.25;;;5.20;;
21138;SDS011;10727;43.600;1.444;2023-05-01T01:22:49;8.80;;;5.60;;
21138;SDS011;10727;43.600;1.444;2023-05-01T01:26:02;7.55;;;5.60;;
21138;SDS011;10727;43.600;1.444;2023-05-01T01:29:21;7.30;;;5.20;;
21138;SDS011;10727;43.600;1.444;2023-05-01T01:35:57;7.13;;;4.68;;
21138;SDS011;10727;43.600;1.444;2023-05-01T01:39:08;8.75;;;5.10;;
21138;SDS011;10727;43.600;1.444;2023-05-01T01:42:17;6.97;;;4.43;;
21138;SDS011;10727;43.600;1.444;2023-05-01T01:45:24;11.00;;;4.07;;
21138;SDS011;10727;43.600;1.444;2023-05-01T01:48:30;7.50;;;4.47;;
21138;SDS011;10727;43.600;1.444;2023-05-01T01:51:37;5.35;;;3.65;;
21138;SDS011;10727;43.600;1.444;2023-05-01T01:54:47;4.68;;;3.70;;
21138;SDS011;10727;43.600;1.444;2023-05-01T01:57:53;4.45;;;3.30;;
21138;SDS011;10727;43.600;1.444;2023-05-01T02:00:57;4.72;;;2.88;;
21138;SDS011;10727;43.600;1.444;2023-05-01T02:04:03;5.40;;;3.15;;
21138;SDS011;10727;43.600;1.444;2023-05-01T02:07:10;3.85;;;3.13;;
21138;SDS011;10727;43.600;1.444;2023-05-01T02:10:17;4.60;;;3.13;;
21138;SDS011;10727;43.600;1.444;2023-05-01T02:13:23;3.75;;;3.10;;
21138;SDS011;10727;43.600;1.444;2023-05-01T02:16:30;3.50;;;3.20;;
21138;SDS011;10727;43.600;1.444;2023-05-01T02:19:36;4.75;;;3.00;;
21138;SDS011;10727;43.600;1.444;2023-05-01T02:22:44;5.50;;;2.97;;
21138;SDS011;10727;43.600;1.444;2023-05-01T02:25:51;6.32;;;2.80;;
21138;SDS011;10727;43.600;1.444;2023-05-01T02:28:57;7.63;;;2.90;;
21138;SDS011;10727;43.600;1.444;2023-05-01T02:32:02;4.63;;;2.50;;
21138;SDS011;10727;43.600;1.444;2023-05-01T02:35:07;6.60;;;2.80;;
21138;SDS011;10727;43.600;1.444;2023-05-01T02:38:15;2.88;;;2.35;;
21138;SDS011;10727;43.600;1.444;2023-05-01T02:41:21;4.63;;;2.85;;
21138;SDS011;10727;43.600;1.444;2023-05-01T02:44:26;4.43;;;2.80;;
21138;SDS011;10727;43.600;1.444;2023-05-01T02:47:36;5.90;;;2.40;;
21138;SDS011;10727;43.600;1.444;2023-05-01T02:50:42;4.55;;;2.50;;
21138;SDS011;10727;43.600;1.444;2023-05-01T02:53:49;2.83;;;2.40;;
21138;SDS011;10727;43.600;1.444;2023-05-01T02:56:57;4.47;;;2.58;;
21138;SDS011;10727;43.600;1.444;2023-05-01T03:00:04;4.25;;;2.72;;
21138;SDS011;10727;43.600;1.444;2023-05-01T03:03:11;4.55;;;2.63;;
21138;SDS011;10727;43.600;1.444;2023-05-01T03:06:16;2.55;;;2.17;;
21138;SDS011;10727;43.600;1.444;2023-05-01T03:09:23;4.80;;;2.30;;
21138;SDS011;10727;43.600;1.444;2023-05-01T03:12:28;4.30;;;2.55;;
21138;SDS011;10727;43.600;1.444;2023-05-01T03:15:33;2.53;;;2.25;;
21138;SDS011;10727;43.600;1.444;2023-05-01T03:18:38;4.40;;;2.50;;
21138;SDS011;10727;43.600;1.444;2023-05-01T03:21:43;3.92;;;2.28;;
21138;SDS011;10727;43.600;1.444;2023-05-01T03:24:49;4.28;;;2.28;;
21138;SDS011;10727;43.600;1.444;2023-05-01T03:27:54;2.22;;;1.85;;
21138;SDS011;10727;43.600;1.444;2023-05-01T03:31:00;2.95;;;2.05;;
21138;SDS011;10727;43.600;1.444;2023-05-01T03:34:05;2.78;;;2.03;;
21138;SDS011;10727;43.600;1.444;2023-05-01T03:37:11;3.78;;;2.17;;
21138;SDS011;10727;43.600;1.444;2023-05-01T03:40:18;3.08;;;2.25;;
21138;SDS011;10727;43.600;1.444;2023-05-01T03:43:42;3.42;;;2.30;;
21138;SDS011;10727;43.600;1.444;2023-05-01T03:47:10;6.97;;;2.20;;
21138;SDS011;10727;43.600;1.444;2023-05-01T03:50:17;2.63;;;2.00;;
21138;SDS011;10727;43.600;1.444;2023-05-01T03:53:25;3.70;;;2.03;;
21138;SDS011;10727;43.600;1.444;2023-05-01T03:56:31;3.00;;;1.90;;
21138;SDS011;10727;43.600;1.444;2023-05-01T03:59:39;3.10;;;2.00;;
21138;SDS011;10727;43.600;1.444;2023-05-01T04:02:47;3.05;;;1.85;;
21138;SDS011;10727;43.600;1.444;2023-05-01T04:05:56;3.33;;;2.22;;
21138;SDS011;10727;43.600;1.444;2023-05-01T04:09:01;3.50;;;1.80;;
21138;SDS011;10727;43.600;1.444;2023-05-01T04:12:08;1.75;;;1.60;;
21138;SDS011;10727;43.600;1.444;2023-05-01T04:15:13;2.75;;;1.80;;
21138;SDS011;10727;43.600;1.444;2023-05-01T04:18:19;3.53;;;1.90;;
21138;SDS011;10727;43.600;1.444;2023-05-01T04:21:24;2.67;;;1.77;;
21138;SDS011;10727;43.600;1.444;2023-05-01T04:24:29;2.85;;;1.50;;
21138;SDS011;10727;43.600;1.444;2023-05-01T04:27:35;4.70;;;1.60;;
21138;SDS011;10727;43.600;1.444;2023-05-01T04:30:41;2.97;;;1.83;;
21138;SDS011;10727;43.600;1.444;2023-05-01T04:33:47;3.90;;;1.85;;
21138;SDS011;10727;43.600;1.444;2023-05-01T04:36:52;3.45;;;1.73;;
21138;SDS011;10727;43.600;1.444;2023-05-01T04:39:57;2.45;;;1.27;;
21138;SDS011;10727;43.600;1.444;2023-05-01T04:43:04;2.63;;;1.50;;
21138;SDS011;10727;43.600;1.444;2023-05-01T04:46:09;1.92;;;1.30;;
21138;SDS011;10727;43.600;1.444;2023-05-01T04:49:14;2.55;;;1.60;;
21138;SDS011;10727;43.600;1.444;2023-05-01T04:52:19;5.78;;;1.30;;
21138;SDS011;10727;43.600;1.444;2023-05-01T04:55:28;5.65;;;1.63;;
21138;SDS011;10727;43.600;1.444;2023-05-01T04:58:45;2.38;;;1.67;;
21138;SDS011;10727;43.600;1.444;2023-05-01T05:01:54;3.45;;;1.40;;
21138;SDS011;10727;43.600;1.444;2023-05-01T05:04:59;3.22;;;1.40;;
21138;SDS011;10727;43.600;1.444;2023-05-01T05:08:05;2.42;;;1.25;;
21138;SDS011;10727;43.600;1.444;2023-05-01T05:11:13;3.15;;;1.17;;
21138;SDS011;10727;43.600;1.444;2023-05-01T05:14:38;2.47;;;1.30;;
21138;SDS011;10727;43.600;1.444;2023-05-01T05:17:43;3.05;;;1.45;;
21138;SDS011;10727;43.600;1.444;2023-05-01T05:20:49;4.03;;;1.30;;
21138;SDS011;10727;43.600;1.444;2023-05-01T05:23:54;2.72;;;1.10;;
21138;SDS011;10727;43.600;1.444;2023-05-01T05:26:59;3.38;;;1.33;;
21138;SDS011;10727;43.600;1.444;2023-05-01T05:30:08;1.73;;;1.02;;
21138;SDS011;10727;43.600;1.444;2023-05-01T05:33:13;1.48;;;1.20;;
21138;SDS011;10727;43.600;1.444;2023-05-01T05:36:18;3.40;;;1.70;;
21138;SDS011;10727;43.600;1.444;2023-05-01T05:39:24;1.38;;;1.10;;
21138;SDS011;10727;43.600;1.444;2023-05-01T05:42:30;1.95;;;1.38;;
21138;SDS011;10727;43.600;1.444;2023-05-01T05:45:41;2.30;;;1.20;;
21138;SDS011;10727;43.600;1.444;2023-05-01T05:48:46;2.95;;;1.00;;
21138;SDS011;10727;43.600;1.444;2023-05-01T05:51:52;2.10;;;1.20;;
21138;SDS011;10727;43.600;1.444;2023-05-01T05:54:58;3.15;;;1.35;;
21138;SDS011;10727;43.600;1.444;2023-05-01T05:58:03;2.20;;;1.33;;
21138;SDS011;10727;43.600;1.444;2023-05-01T06:01:10;3.53;;;1.10;;
21138;SDS011;10727;43.600;1.444;2023-05-01T06:04:17;1.77;;;1.00;;
21138;SDS011;10727;43.600;1.444;2023-05-01T06:07:22;2.83;;;1.10;;
21138;SDS011;10727;43.600;1.444;2023-05-01T06:10:27;1.30;;;0.80;;
21138;SDS011;10727;43.600;1.444;2023-05-01T06:13:33;4.05;;;1.10;;
21138;SDS011;10727;43.600;1.444;2023-05-01T06:16:40;2.53;;;1.02;;
21138;SDS011;10727;43.600;1.444;2023-05-01T06:19:45;1.67;;;0.85;;
21138;SDS011;10727;43.600;1.444;2023-05-01T06:22:49;1.88;;;0.90;;
21138;SDS011;10727;43.600;1.444;2023-05-01T06:26:02;1.17;;;0.80;;
21138;SDS011;10727;43.600;1.444;2023-05-01T06:29:08;1.23;;;0.80;;
21138;SDS011;10727;43.600;1.444;2023-05-01T06:32:14;1.30;;;0.80;;
21138;SDS011;10727;43.600;1.444;2023-05-01T06:35:20;0.82;;;0.80;;
21138;SDS011;10727;43.600;1.444;2023-05-01T06:38:26;1.35;;;0.98;;
21138;SDS011;10727;43.600;1.444;2023-05-01T06:41:32;1.52;;;0.88;;
21138;SDS011;10727;43.600;1.444;2023-05-01T06:44:38;0.80;;;0.70;;
21138;SDS011;10727;43.600;1.444;2023-05-01T06:47:45;0.88;;;0.80;;
21138;SDS011;10727;43.600;1.444;2023-05-01T06:50:49;0.80;;;0.80;;
21138;SDS011;10727;43.600;1.444;2023-05-01T06:53:55;1.88;;;0.95;;
21138;SDS011;10727;43.600;1.444;2023-05-01T06:57:00;4.03;;;1.00;;
21138;SDS011;10727;43.600;1.444;2023-05-01T07:00:07;3.63;;;1.10;;
21138;SDS011;10727;43.600;1.444;2023-05-01T07:03:15;2.22;;;1.05;;
21138;SDS011;10727;43.600;1.444;2023-05-01T07:06:20;19.30;;;12.98;;
21138;SDS011;10727;43.600;1.444;2023-05-01T07:09:25;10.23;;;5.85;;
21138;SDS011;10727;43.600;1.444;2023-05-01T07:12:30;5.35;;;2.00;;
21138;SDS011;10727;43.600;1.444;2023-05-01T07:15:35;4.70;;;1.70;;
21138;SDS011;10727;43.600;1.444;2023-05-01T07:18:42;4.05;;;2.50;;
21138;SDS011;10727;43.600;1.444;2023-05-01T07:21:47;4.35;;;1.45;;
21138;SDS011;10727;43.600;1.444;2023-05-01T07:24:52;2.70;;;1.23;;
21138;SDS011;10727;43.600;1.444;2023-05-01T07:27:57;1.58;;;1.20;;
21138;SDS011;10727;43.600;1.444;2023-05-01T07:31:03;1.70;;;1.10;;
21138;SDS011;10727;43.600;1.444;2023-05-01T07:34:10;2.40;;;1.10;;
21138;SDS011;10727;43.600;1.444;2023-05-01T07:37:16;1.95;;;1.00;;
21138;SDS011;10727;43.600;1.444;2023-05-01T07:40:21;2.22;;;1.13;;
21138;SDS011;10727;43.600;1.444;2023-05-01T07:43:26;1.98;;;0.80;;
21138;SDS011;10727;43.600;1.444;2023-05-01T07:46:32;10.18;;;7.28;;
21138;SDS011;10727;43.600;1.444;2023-05-01T07:49:39;4.45;;;2.88;;
21138;SDS011;10727;43.600;1.444;2023-05-01T07:52:44;2.10;;;1.00;;
21138;SDS011;10727;43.600;1.444;2023-05-01T07:55:50;1.85;;;1.00;;
21138;SDS011;10727;43.600;1.444;2023-05-01T07:58:55;3.22;;;0.90;;
21138;SDS011;10727;43.600;1.444;2023-05-01T08:02:00;1.83;;;0.98;;
21138;SDS011;10727;43.600;1.444;2023-05-01T08:05:07;1.33;;;0.98;;
21138;SDS011;10727;43.600;1.444;2023-05-01T08:08:12;1.38;;;0.90;;
21138;SDS011;10727;43.600;1.444;2023-05-01T08:11:22;2.80;;;0.98;;
21138;SDS011;10727;43.600;1.444;2023-05-01T08:14:28;1.52;;;0.95;;
21138;SDS011;10727;43.600;1.444;2023-05-01T08:17:33;2.70;;;0.90;;
21138;SDS011;10727;43.600;1.444;2023-05-01T08:20:40;1.95;;;1.10;;
21138;SDS011;10727;43.600;1.444;2023-05-01T08:23:45;7.40;;;0.88;;
21138;SDS011;10727;43.600;1.444;2023-05-01T08:26:52;3.55;;;0.90;;
21138;SDS011;10727;43.600;1.444;2023-05-01T08:29:58;2.42;;;0.88;;
21138;SDS011;10727;43.600;1.444;2023-05-01T08:33:03;3.55;;;1.13;;
21138;SDS011;10727;43.600;1.444;2023-05-01T08:36:10;2.13;;;1.10;;
21138;SDS011;10727;43.600;1.444;2023-05-01T08:39:15;2.45;;;1.10;;
21138;SDS011;10727;43.600;1.444;2023-05-01T08:42:21;2.72;;;1.85;;
21138;SDS011;10727;43.600;1.444;2023-05-01T08:45:26;3.33;;;1.02;;
21138;SDS011;10727;43.600;1.444;2023-05-01T08:48:32;1.30;;;1.00;;
21138;SDS011;10727;43.600;1.444;2023-05-01T08:51:41;2.17;;;1.40;;
21138;SDS011;10727;43.600;1.444;2023-05-01T08:54:46;1.58;;;1.13;;
21138;SDS011;10727;43.600;1.444;2023-05-01T08:57:52;3.17;;;1.10;;
21138;SDS011;10727;43.600;1.444;2023-05-01T09:00:57;3.78;;;1.40;;
21138;SDS011;10727;43.600;1.444;2023-05-01T09:04:03;1.70;;;1.10;;
21138;SDS011;10727;43.600;1.444;2023-05-01T09:07:12;3.42;;;1.20;;
21138;SDS011;10727;43.600;1.444;2023-05-01T09:10:17;1.42;;;1.08;;
21138;SDS011;10727;43.600;1.444;2023-05-01T09:13:23;3.85;;;2.45;;
21138;SDS011;10727;43.600;1.444;2023-05-01T09:16:29;2.03;;;1.00;;
21138;SDS011;10727;43.600;1.444;2023-05-01T09:19:34;1.20;;;1.10;;
21138;SDS011;10727;43.600;1.444;2023-05-01T09:22:41;2.20;;;1.10;;
21138;SDS011;10727;43.600;1.444;2023-05-01T09:25:46;2.33;;;0.75;;
21138;SDS011;10727;43.600;1.444;2023-05-01T09:28:51;3.20;;;1.08;;
21138;SDS011;10727;43.600;1.444;2023-05-01T09:32:02;1.15;;;0.70;;
21138;SDS011;10727;43.600;1.444;2023-05-01T09:35:16;0.65;;;0.65;;
21138;SDS011;10727;43.600;1.444;2023-05-01T09:38:23;1.27;;;0.80;;
21138;SDS011;10727;43.600;1.444;2023-05-01T09:41:28;0.93;;;0.60;;
21138;SDS011;10727;43.600;1.444;2023-05-01T09:44:41;0.95;;;0.80;;
21138;SDS011;10727;43.600;1.444;2023-05-01T09:47:47;1.25;;;0.90;;
21138;SDS011;10727;43.600;1.444;2023-05-01T09:50:52;1.50;;;1.00;;
21138;SDS011;10727;43.600;1.444;2023-05-01T09:53:59;2.10;;;1.45;;
21138;SDS011;10727;43.600;1.444;2023-05-01T09:57:04;2.45;;;1.30;;
21138;SDS011;10727;43.600;1.444;2023-05-01T10:00:10;3.00;;;1.20;;
21138;SDS011;10727;43.600;1.444;2023-05-01T10:03:15;3.38;;;1.02;;
21138;SDS011;10727;43.600;1.444;2023-05-01T10:06:26;1.08;;;0.90;;
21138;SDS011;10727;43.600;1.444;2023-05-01T10:09:33;2.97;;;0.95;;
21138;SDS011;10727;43.600;1.444;2023-05-01T10:12:38;1.45;;;0.80;;
21138;SDS011;10727;43.600;1.444;2023-05-01T10:15:43;3.22;;;0.70;;
21138;SDS011;10727;43.600;1.444;2023-05-01T10:18:49;1.48;;;0.80;;
21138;SDS011;10727;43.600;1.444;2023-05-01T10:21:54;10.02;;;7.53;;
21138;SDS011;10727;43.600;1.444;2023-05-01T10:25:00;1.27;;;1.10;;
21138;SDS011;10727;43.600;1.444;2023-05-01T10:28:07;0.60;;;0.60;;
21138;SDS011;10727;43.600;1.444;2023-05-01T10:31:13;2.63;;;0.80;;
21138;SDS011;10727;43.600;1.444;2023-05-01T10:34:18;1.40;;;0.80;;
21138;SDS011;10727;43.600;1.444;2023-05-01T10:37:27;0.85;;;0.80;;
21138;SDS011;10727;43.600;1.444;2023-05-01T10:40:46;2.65;;;1.00;;
21138;SDS011;10727;43.600;1.444;2023-05-01T10:43:53;3.25;;;1.15;;
21138;SDS011;10727;43.600;1.444;2023-05-01T10:54:23;3.30;;;1.63;;
21138;SDS011;10727;43.600;1.444;2023-05-01T10:57:42;4.97;;;1.90;;
21138;SDS011;10727;43.600;1.444;2023-05-01T11:00:53;2.83;;;1.35;;
21138;SDS011;10727;43.600;1.444;2023-05-01T11:07:42;2.37;;;1.47;;
21138;SDS011;10727;43.600;1.444;2023-05-01T11:10:48;2.40;;;1.17;;
21138;SDS011;10727;43.600;1.444;2023-05-01T11:13:55;1.52;;;1.30;;
21138;SDS011;10727;43.600;1.444;2023-05-01T11:17:01;2.97;;;1.60;;
21138;SDS011;10727;43.600;1.444;2023-05-01T11:20:07;3.05;;;1.52;;
21138;SDS011;10727;43.600;1.444;2023-05-01T11:23:16;3.13;;;1.55;;
21138;SDS011;10727;43.600;1.444;2023-05-01T11:26:21;1.55;;;1.05;;
21138;SDS011;10727;43.600;1.444;2023-05-01T11:29:30;1.45;;;0.88;;
21138;SDS011;10727;43.600;1.444;2023-05-01T11:32:36;2.45;;;1.10;;
21138;SDS011;10727;43.600;1.444;2023-05-01T11:35:41;1.30;;;0.77;;
21138;SDS011;10727;43.600;1.444;2023-05-01T11:38:49;2.38;;;0.80;;
21138;SDS011;10727;43.600;1.444;2023-05-01T11:42:05;1.75;;;1.00;;
21138;SDS011;10727;43.600;1.444;2023-05-01T11:45:13;3.45;;;2.42;;
21138;SDS011;10727;43.600;1.444;2023-05-01T11:48:19;9.73;;;6.28;;
21138;SDS011;10727;43.600;1.444;2023-05-01T11:51:24;3.70;;;2.97;;
21138;SDS011;10727;43.600;1.444;2023-05-01T11:54:30;2.75;;;1.73;;
21138;SDS011;10727;43.600;1.444;2023-05-01T11:57:43;1.83;;;1.40;;
21138;SDS011;10727;43.600;1.444;2023-05-01T12:00:50;3.47;;;1.63;;
21138;SDS011;10727;43.600;1.444;2023-05-01T12:03:55;1.77;;;1.20;;
21138;SDS011;10727;43.600;1.444;2023-05-01T12:07:00;1.38;;;1.02;;
21138;SDS011;10727;43.600;1.444;2023-05-01T12:10:06;1.65;;;1.05;;
21138;SDS011;10727;43.600;1.444;2023-05-01T12:13:12;2.00;;;1.08;;
21138;SDS011;10727;43.600;1.444;2023-05-01T12:16:18;1.20;;;1.10;;
21138;SDS011;10727;43.600;1.444;2023-05-01T12:19:23;2.28;;;1.52;;
21138;SDS011;10727;43.600;1.444;2023-05-01T12:22:28;1.35;;;1.25;;
21138;SDS011;10727;43.600;1.444;2023-05-01T12:25:34;2.13;;;1.42;;
21138;SDS011;10727;43.600;1.444;2023-05-01T12:28:51;1.67;;;1.15;;
21138;SDS011;10727;43.600;1.444;2023-05-01T12:31:57;3.17;;;1.52;;
21138;SDS011;10727;43.600;1.444;2023-05-01T12:35:11;3.25;;;1.55;;
21138;SDS011;10727;43.600;1.444;2023-05-01T12:38:17;3.00;;;1.75;;
21138;SDS011;10727;43.600;1.444;2023-05-01T12:41:31;2.95;;;1.60;;
21138;SDS011;10727;43.600;1.444;2023-05-01T12:44:36;2.08;;;1.73;;
21138;SDS011;10727;43.600;1.444;2023-05-01T12:47:43;3.53;;;1.30;;
21138;SDS011;10727;43.600;1.444;2023-05-01T12:50:48;1.63;;;1.23;;
21138;SDS011;10727;43.600;1.444;2023-05-01T12:53:56;2.10;;;1.10;;
21138;SDS011;10727;43.600;1.444;2023-05-01T12:57:05;2.10;;;1.35;;
21138;SDS011;10727;43.600;1.444;2023-05-01T13:00:11;1.95;;;1.40;;
21138;SDS011;10727;43.600;1.444;2023-05-01T13:03:21;1.58;;;1.48;;
21138;SDS011;10727;43.600;1.444;2023-05-01T13:06:30;0.82;;;0.82;;
21138;SDS011;10727;43.600;1.444;2023-05-01T13:09:36;1.50;;;1.33;;
21138;SDS011;10727;43.600;1.444;2023-05-01T13:12:42;2.80;;;1.15;;
21138;SDS011;10727;43.600;1.444;2023-05-01T13:15:48;2.13;;;0.90;;
21138;SDS011;10727;43.600;1.444;2023-05-01T13:18:55;2.30;;;1.08;;
21138;SDS011;10727;43.600;1.444;2023-05-01T13:22:00;2.10;;;1.10;;
21138;SDS011;10727;43.600;1.444;2023-05-01T13:25:13;1.70;;;1.10;;
21138;SDS011;10727;43.600;1.444;2023-05-01T13:28:19;1.80;;;1.40;;
21138;SDS011;10727;43.600;1.444;2023-05-01T13:31:24;1.73;;;0.90;;
21138;SDS011;10727;43.600;1.444;2023-05-01T13:34:31;1.98;;;1.08;;
21138;SDS011;10727;43.600;1.444;2023-05-01T13:37:36;2.15;;;0.90;;
21138;SDS011;10727;43.600;1.444;2023-05-01T13:40:43;0.98;;;0.90;;
21138;SDS011;10727;43.600;1.444;2023-05-01T13:43:49;7.00;;;1.15;;
21138;SDS011;10727;43.600;1.444;2023-05-01T13:46:54;1.20;;;0.93;;
21138;SDS011;10727;43.600;1.444;2023-05-01T13:50:01;4.40;;;1.27;;
21138;SDS011;10727;43.600;1.444;2023-05-01T13:53:06;5.20;;;3.97;;
21138;SDS011;10727;43.600;1.444;2023-05-01T13:56:12;2.30;;;2.10;;
21138;SDS011;10727;43.600;1.444;2023-05-01T13:59:17;1.20;;;1.10;;
21138;SDS011;10727;43.600;1.444;2023-05-01T14:02:24;1.95;;;1.15;;
21138;SDS011;10727;43.600;1.444;2023-05-01T14:05:31;1.05;;;0.98;;
21138;SDS011;10727;43.600;1.444;2023-05-01T14:08:36;0.90;;;0.90;;
21138;SDS011;10727;43.600;1.444;2023-05-01T14:11:45;1.20;;;1.10;;
21138;SDS011;10727;43.600;1.444;2023-05-01T14:14:50;1.35;;;1.00;;
21138;SDS011;10727;43.600;1.444;2023-05-01T14:17:57;1.67;;;1.02;;
21138;SDS011;10727;43.600;1.444;2023-05-01T14:21:04;1.30;;;1.20;;
21138;SDS011;10727;43.600;1.444;2023-05-01T14:24:09;1.85;;;1.08;;
21138;SDS011;10727;43.600;1.444;2023-05-01T14:27:14;1.05;;;0.90;;
21138;SDS011;10727;43.600;1.444;2023-05-01T14:30:23;3.15;;;1.02;;
21138;SDS011;10727;43.600;1.444;2023-05-01T14:33:29;1.38;;;1.00;;
21138;SDS011;10727;43.600;1.444;2023-05-01T14:36:36;2.00;;;1.55;;
21138;SDS011;10727;43.600;1.444;2023-05-01T14:39:41;2.60;;;1.20;;
21138;SDS011;10727;43.600;1.444;2023-05-01T14:42:47;1.45;;;1.10;;
21138;SDS011;10727;43.600;1.444;2023-05-01T14:45:52;1.52;;;1.13;;
21138;SDS011;10727;43.600;1.444;2023-05-01T14:48:59;1.63;;;1.00;;
21138;SDS011;10727;43.600;1.444;2023-05-01T14:52:06;1.08;;;0.98;;
21138;SDS011;10727;43.600;1.444;2023-05-01T14:55:11;1.50;;;1.30;;
21138;SDS011;10727;43.600;1.444;2023-05-01T14:58:16;1.52;;;1.05;;
21138;SDS011;10727;43.600;1.444;2023-05-01T15:01:21;1.90;;;1.40;;
21138;SDS011;10727;43.600;1.444;2023-05-01T15:04:26;1.80;;;1.00;;
21138;SDS011;10727;43.600;1.444;2023-05-01T15:07:32;3.70;;;1.13;;
21138;SDS011;10727;43.600;1.444;2023-05-01T15:10:38;1.10;;;1.00;;
21138;SDS011;10727;43.600;1.444;2023-05-01T15:13:44;3.35;;;1.25;;
21138;SDS011;10727;43.600;1.444;2023-05-01T15:16:51;3.75;;;2.90;;
21138;SDS011;10727;43.600;1.444;2023-05-01T15:19:56;4.43;;;3.38;;
21138;SDS011;10727;43.600;1.444;2023-05-01T15:23:02;1.77;;;1.40;;
21138;SDS011;10727;43.600;1.444;2023-05-01T15:26:07;2.03;;;1.00;;
21138;SDS011;10727;43.600;1.444;2023-05-01T15:29:12;1.58;;;1.15;;
21138;SDS011;10727;43.600;1.444;2023-05-01T15:32:17;1.65;;;0.90;;
21138;SDS011;10727;43.600;1.444;2023-05-01T15:35:22;3.10;;;1.10;;
21138;SDS011;10727;43.600;1.444;2023-05-01T15:38:29;1.98;;;1.50;;
21138;SDS011;10727;43.600;1.444;2023-05-01T15:41:34;2.50;;;1.30;;
21138;SDS011;10727;43.600;1.444;2023-05-01T15:44:39;2.78;;;1.40;;
21138;SDS011;10727;43.600;1.444;2023-05-01T15:47:44;2.72;;;1.40;;
21138;SDS011;10727;43.600;1.444;2023-05-01T15:50:49;1.27;;;1.17;;
21138;SDS011;10727;43.600;1.444;2023-05-01T15:53:56;2.45;;;1.20;;
21138;SDS011;10727;43.600;1.444;2023-05-01T15:57:02;1.27;;;1.08;;
21138;SDS011;10727;43.600;1.444;2023-05-01T16:00:09;1.65;;;1.00;;
21138;SDS011;10727;43.600;1.444;2023-05-01T16:03:16;1.17;;;0.80;;
21138;SDS011;10727;43.600;1.444;2023-05-01T16:06:21;1.33;;;0.98;;
21138;SDS011;10727;43.600;1.444;2023-05-01T16:09:29;1.52;;;1.00;;
21138;SDS011;10727;43.600;1.444;2023-05-01T16:12:35;2.33;;;1.20;;
21138;SDS011;10727;43.600;1.444;2023-05-01T16:15:40;2.88;;;1.25;;
21138;SDS011;10727;43.600;1.444;2023-05-01T16:18:45;1.10;;;1.00;;
21138;SDS011;10727;43.600;1.444;2023-05-01T16:21:50;2.28;;;1.50;;
21138;SDS011;10727;43.600;1.444;2023-05-01T16:24:57;3.17;;;1.15;;
21138;SDS011;10727;43.600;1.444;2023-05-01T16:28:03;1.10;;;1.00;;
21138;SDS011;10727;43.600;1.444;2023-05-01T16:31:09;2.55;;;1.40;;
21138;SDS011;10727;43.600;1.444;2023-05-01T16:34:16;3.50;;;0.90;;
21138;SDS011;10727;43.600;1.444;2023-05-01T16:37:21;1.13;;;1.00;;
21138;SDS011;10727;43.600;1.444;2023-05-01T16:40:30;0.98;;;0.82;;
21138;SDS011;10727;43.600;1.444;2023-05-01T16:43:35;0.90;;;0.80;;
21138;SDS011;10727;43.600;1.444;2023-05-01T16:46:40;2.55;;;1.00;;
21138;SDS011;10727;43.600;1.444;2023-05-01T16:49:45;2.55;;;0.95;;
21138;SDS011;10727;43.600;1.444;2023-05-01T16:52:51;1.05;;;0.90;;
21138;SDS011;10727;43.600;1.444;2023-05-01T16:55:58;1.75;;;1.00;;
21138;SDS011;10727;43.600;1.444;2023-05-01T16:59:04;1.10;;;1.00;;
21138;SDS011;10727;43.600;1.444;2023-05-01T17:02:08;1.38;;;1.13;;
21138;SDS011;10727;43.600;1.444;2023-05-01T17:05:14;1.10;;;1.00;;
21138;SDS011;10727;43.600;1.444;2023-05-01T17:08:20;0.88;;;0.80;;
21138;SDS011;10727;43.600;1.444;2023-05-01T17:11:27;1.58;;;1.20;;
21138;SDS011;10727;43.600;1.444;2023-05-01T17:14:32;1.70;;;1.20;;
21138;SDS011;10727;43.600;1.444;2023-05-01T17:17:38;1.00;;;0.90;;
21138;SDS011;10727;43.600;1.444;2023-05-01T17:20:42;8.00;;;5.97;;
21138;SDS011;10727;43.600;1.444;2023-05-01T17:23:48;3.53;;;2.70;;
21138;SDS011;10727;43.600;1.444;2023-05-01T17:26:55;4.80;;;2.95;;
21138;SDS011;10727;43.600;1.444;2023-05-01T17:30:00;2.17;;;1.85;;
21138;SDS011;10727;43.600;1.444;2023-05-01T17:33:07;2.78;;;1.48;;
21138;SDS011;10727;43.600;1.444;2023-05-01T17:36:12;1.33;;;1.17;;
21138;SDS011;10727;43.600;1.444;2023-05-01T17:39:18;2.38;;;1.60;;
21138;SDS011;10727;43.600;1.444;2023-05-01T17:42:26;2.38;;;1.50;;
21138;SDS011;10727;43.600;1.444;2023-05-01T17:45:31;1.85;;;1.50;;
21138;SDS011;10727;43.600;1.444;2023-05-01T17:48:36;3.53;;;1.63;;
21138;SDS011;10727;43.600;1.444;2023-05-01T17:51:41;3.28;;;1.70;;
21138;SDS011;10727;43.600;1.444;2023-05-01T17:54:47;1.50;;;1.20;;
21138;SDS011;10727;43.600;1.444;2023-05-01T17:57:53;1.95;;;1.42;;
21138;SDS011;10727;43.600;1.444;2023-05-01T18:00:58;1.77;;;1.30;;
21138;SDS011;10727;43.600;1.444;2023-05-01T18:04:05;2.33;;;1.20;;
21138;SDS011;10727;43.600;1.444;2023-05-01T18:07:10;3.80;;;1.63;;
21138;SDS011;10727;43.600;1.444;2023-05-01T18:10:15;5.18;;;4.28;;
21138;SDS011;10727;43.600;1.444;2023-05-01T18:13:22;5.28;;;2.65;;
21138;SDS011;10727;43.600;1.444;2023-05-01T18:16:30;6.18;;;2.20;;
21138;SDS011;10727;43.600;1.444;2023-05-01T18:19:35;2.42;;;1.88;;
21138;SDS011;10727;43.600;1.444;2023-05-01T18:22:40;2.70;;;1.80;;
21138;SDS011;10727;43.600;1.444;2023-05-01T18:25:45;2.60;;;1.77;;
21138;SDS011;10727;43.600;1.444;2023-05-01T18:28:52;2.22;;;1.75;;
21138;SDS011;10727;43.600;1.444;2023-05-01T18:31:57;2.80;;;1.50;;
21138;SDS011;10727;43.600;1.444;2023-05-01T18:35:02;2.17;;;1.55;;
21138;SDS011;10727;43.600;1.444;2023-05-01T18:38:08;3.58;;;1.40;;
21138;SDS011;10727;43.600;1.444;2023-05-01T18:41:13;1.95;;;1.50;;
21138;SDS011;10727;43.600;1.444;2023-05-01T18:44:19;3.33;;;1.90;;
21138;SDS011;10727;43.600;1.444;2023-05-01T18:47:25;5.15;;;2.00;;
21138;SDS011;10727;43.600;1.444;2023-05-01T18:50:30;2.63;;;1.70;;
21138;SDS011;10727;43.600;1.444;2023-05-01T18:53:35;4.10;;;1.67;;
21138;SDS011;10727;43.600;1.444;2023-05-01T18:56:40;1.60;;;1.40;;
21138;SDS011;10727;43.600;1.444;2023-05-01T18:59:46;6.82;;;1.80;;
21138;SDS011;10727;43.600;1.444;2023-05-01T19:02:52;2.75;;;1.70;;